B72DV ZGSZ-ZGFS
Flight info
| Callsign | B72DV |
|---|---|
| Flight time | 0h 32m |
| Altitude | 2000 |
| Route | HUMEN NANSHA LECONG |
| Aircraft | A139/L-DFGHM1M2M3OVWXYZ/SB2 |
Departure
| Time | 2026-04-15 13:00 |
|---|---|
| Airport | Shenzhen Bao'an International Airport (ZGSZ) |
Arrival
| Time | 2026-04-15 13:32 |
|---|---|
| Airport | Foshan Shadi Airport (ZGFS) |
| Time | Latitude | Longitude | Altitude | Speed | Heading |
|---|---|---|---|---|---|
| 2026-04-15 12:35 | 22.64721 | 113.79394 | 17 ft | 0 kts | 153° |
| 2026-04-15 12:49 | 22.64719 | 113.79390 | 18 ft | 3 kts | 276° |
| 2026-04-15 12:49 | 22.64727 | 113.79385 | 17 ft | 0 kts | 331° |
| 2026-04-15 12:50 | 22.64765 | 113.79369 | 18 ft | 9 kts | 334° |
| 2026-04-15 12:50 | 22.64797 | 113.79328 | 18 ft | 7 kts | 243° |
| 2026-04-15 12:50 | 22.64782 | 113.79294 | 18 ft | 4 kts | 244° |
| 2026-04-15 12:50 | 22.64760 | 113.79249 | 18 ft | 6 kts | 243° |
| 2026-04-15 12:51 | 22.64751 | 113.79210 | 18 ft | 4 kts | 277° |
| 2026-04-15 12:51 | 22.64779 | 113.79176 | 18 ft | 8 kts | 334° |
| 2026-04-15 12:51 | 22.64851 | 113.79138 | 18 ft | 13 kts | 333° |
| 2026-04-15 12:51 | 22.64938 | 113.79090 | 18 ft | 15 kts | 332° |
| 2026-04-15 12:52 | 22.65035 | 113.79037 | 18 ft | 15 kts | 330° |
| 2026-04-15 12:52 | 22.65136 | 113.78980 | 18 ft | 16 kts | 333° |
| 2026-04-15 12:52 | 22.65233 | 113.78928 | 18 ft | 13 kts | 333° |
| 2026-04-15 12:52 | 22.65309 | 113.78886 | 18 ft | 11 kts | 334° |
| 2026-04-15 12:53 | 22.65371 | 113.78852 | 18 ft | 8 kts | 335° |
| 2026-04-15 12:53 | 22.65424 | 113.78823 | 18 ft | 9 kts | 332° |
| 2026-04-15 12:53 | 22.65496 | 113.78783 | 18 ft | 13 kts | 333° |
| 2026-04-15 12:53 | 22.65542 | 113.78730 | 18 ft | 7 kts | 267° |
| 2026-04-15 12:54 | 22.65526 | 113.78684 | 18 ft | 6 kts | 244° |
| 2026-04-15 12:54 | 22.65504 | 113.78635 | 18 ft | 7 kts | 242° |
| 2026-04-15 12:54 | 22.65493 | 113.78614 | 17 ft | 0 kts | 243° |
| 2026-04-15 12:57 | 22.65493 | 113.78613 | 18 ft | 1 kts | 243° |
| 2026-04-15 12:57 | 22.65477 | 113.78581 | 18 ft | 8 kts | 242° |
| 2026-04-15 12:57 | 22.65423 | 113.78504 | 18 ft | 9 kts | 195° |
| 2026-04-15 12:57 | 22.65405 | 113.78504 | 17 ft | 0 kts | 154° |
| 2026-04-15 12:58 | 22.65402 | 113.78506 | 18 ft | 4 kts | 153° |
| 2026-04-15 12:58 | 22.65256 | 113.78588 | 38 ft | 44 kts | 161° |
| 2026-04-15 12:58 | 22.64914 | 113.78777 | 189 ft | 67 kts | 161° |
| 2026-04-15 12:59 | 22.63800 | 113.79392 | 423 ft | 105 kts | 157° |
| 2026-04-15 12:59 | 22.63096 | 113.79747 | 547 ft | 117 kts | 154° |
| 2026-04-15 12:59 | 22.62327 | 113.80187 | 595 ft | 127 kts | 151° |
| 2026-04-15 13:00 | 22.61564 | 113.80625 | 807 ft | 120 kts | 151° |
| 2026-04-15 13:00 | 22.60829 | 113.81107 | 856 ft | 124 kts | 147° |
| 2026-04-15 13:00 | 22.60110 | 113.81524 | 982 ft | 105 kts | 170° |
| 2026-04-15 13:00 | 22.59507 | 113.81292 | 1009 ft | 92 kts | 230° |
| 2026-04-15 13:01 | 22.59154 | 113.80756 | 1116 ft | 92 kts | 245° |
| 2026-04-15 13:01 | 22.58944 | 113.80087 | 1178 ft | 99 kts | 258° |
| 2026-04-15 13:01 | 22.58736 | 113.79325 | 1132 ft | 108 kts | 258° |
| 2026-04-15 13:01 | 22.58576 | 113.78503 | 1092 ft | 115 kts | 263° |
| 2026-04-15 13:02 | 22.58491 | 113.77608 | 1099 ft | 118 kts | 273° |
| 2026-04-15 13:02 | 22.58714 | 113.76814 | 1230 ft | 108 kts | 306° |
| 2026-04-15 13:02 | 22.59257 | 113.76325 | 1328 ft | 97 kts | 345° |
| 2026-04-15 13:02 | 22.59947 | 113.76078 | 1347 ft | 111 kts | 354° |
| 2026-04-15 13:03 | 22.60725 | 113.75925 | 1463 ft | 116 kts | 0° |
| 2026-04-15 13:03 | 22.61573 | 113.75759 | 1423 ft | 126 kts | 347° |
| 2026-04-15 13:03 | 22.62448 | 113.75714 | 1409 ft | 128 kts | 349° |
| 2026-04-15 13:03 | 22.63327 | 113.75594 | 1360 ft | 121 kts | 339° |
| 2026-04-15 13:04 | 22.64158 | 113.75433 | 1259 ft | 117 kts | 344° |
| 2026-04-15 13:04 | 22.64945 | 113.75269 | 1181 ft | 112 kts | 337° |
| 2026-04-15 13:04 | 22.65714 | 113.75028 | 1100 ft | 118 kts | 340° |
| 2026-04-15 13:04 | 22.66513 | 113.74884 | 1021 ft | 116 kts | 341° |
| 2026-04-15 13:05 | 22.67335 | 113.74742 | 926 ft | 123 kts | 347° |
| 2026-04-15 13:05 | 22.68184 | 113.74623 | 1038 ft | 119 kts | 349° |
| 2026-04-15 13:05 | 22.69073 | 113.74570 | 1009 ft | 134 kts | 356° |
| 2026-04-15 13:05 | 22.70052 | 113.74521 | 979 ft | 143 kts | 353° |
| 2026-04-15 13:06 | 22.71079 | 113.74436 | 949 ft | 151 kts | 351° |
| 2026-04-15 13:06 | 22.72125 | 113.74235 | 941 ft | 151 kts | 334° |
| 2026-04-15 13:06 | 22.73030 | 113.73693 | 881 ft | 148 kts | 320° |
| 2026-04-15 13:06 | 22.73852 | 113.73013 | 828 ft | 150 kts | 315° |
| 2026-04-15 13:07 | 22.74630 | 113.72283 | 814 ft | 150 kts | 311° |
| 2026-04-15 13:07 | 22.75409 | 113.71474 | 768 ft | 156 kts | 309° |
| 2026-04-15 13:07 | 22.76150 | 113.70610 | 724 ft | 156 kts | 304° |
| 2026-04-15 13:07 | 22.76762 | 113.69679 | 808 ft | 147 kts | 290° |
| 2026-04-15 13:08 | 22.77204 | 113.68686 | 834 ft | 147 kts | 287° |
| 2026-04-15 13:08 | 22.77560 | 113.67645 | 860 ft | 145 kts | 282° |
| 2026-04-15 13:08 | 22.77996 | 113.66663 | 917 ft | 144 kts | 289° |
| 2026-04-15 13:08 | 22.78396 | 113.65635 | 858 ft | 149 kts | 283° |
| 2026-04-15 13:09 | 22.78738 | 113.64554 | 870 ft | 153 kts | 283° |
| 2026-04-15 13:09 | 22.79109 | 113.63446 | 969 ft | 155 kts | 283° |
| 2026-04-15 13:09 | 22.79166 | 113.62372 | 1125 ft | 139 kts | 247° |
| 2026-04-15 13:09 | 22.78726 | 113.61440 | 1134 ft | 137 kts | 232° |
| 2026-04-15 13:10 | 22.78178 | 113.60554 | 1049 ft | 145 kts | 229° |
| 2026-04-15 13:10 | 22.77548 | 113.59662 | 986 ft | 147 kts | 226° |
| 2026-04-15 13:10 | 22.76927 | 113.58804 | 1043 ft | 138 kts | 228° |
| 2026-04-15 13:10 | 22.76490 | 113.57914 | 1140 ft | 128 kts | 243° |
| 2026-04-15 13:11 | 22.76416 | 113.56964 | 1192 ft | 130 kts | 263° |
| 2026-04-15 13:11 | 22.76426 | 113.55969 | 1073 ft | 142 kts | 271° |
| 2026-04-15 13:11 | 22.76714 | 113.54887 | 1009 ft | 155 kts | 287° |
| 2026-04-15 13:11 | 22.77099 | 113.53791 | 1002 ft | 162 kts | 285° |
| 2026-04-15 13:12 | 22.77423 | 113.52629 | 874 ft | 157 kts | 277° |
| 2026-04-15 13:12 | 22.77607 | 113.51451 | 792 ft | 160 kts | 270° |
| 2026-04-15 13:12 | 22.77670 | 113.50294 | 878 ft | 154 kts | 265° |
| 2026-04-15 13:12 | 22.77636 | 113.49123 | 925 ft | 149 kts | 263° |
| 2026-04-15 13:13 | 22.77709 | 113.48005 | 955 ft | 148 kts | 270° |
| 2026-04-15 13:13 | 22.77849 | 113.46888 | 934 ft | 153 kts | 270° |
| 2026-04-15 13:13 | 22.77926 | 113.45737 | 896 ft | 156 kts | 266° |
| 2026-04-15 13:13 | 22.78050 | 113.44556 | 917 ft | 155 kts | 276° |
| 2026-04-15 13:14 | 22.78271 | 113.43420 | 861 ft | 158 kts | 275° |
| 2026-04-15 13:14 | 22.78452 | 113.42278 | 986 ft | 147 kts | 274° |
| 2026-04-15 13:14 | 22.78608 | 113.41221 | 1239 ft | 137 kts | 271° |
| 2026-04-15 13:14 | 22.78705 | 113.40196 | 1339 ft | 141 kts | 268° |
| 2026-04-15 13:15 | 22.78761 | 113.39119 | 1491 ft | 141 kts | 270° |
| 2026-04-15 13:15 | 22.78881 | 113.38041 | 1449 ft | 152 kts | 275° |
| 2026-04-15 13:15 | 22.79288 | 113.36955 | 1482 ft | 155 kts | 297° |
| 2026-04-15 13:15 | 22.79995 | 113.36037 | 1407 ft | 163 kts | 303° |
| 2026-04-15 13:16 | 22.80714 | 113.35055 | 1140 ft | 172 kts | 301° |
| 2026-04-15 13:16 | 22.81422 | 113.34026 | 1061 ft | 169 kts | 301° |
| 2026-04-15 13:16 | 22.82126 | 113.33045 | 1114 ft | 159 kts | 297° |
| 2026-04-15 13:16 | 22.82677 | 113.31937 | 993 ft | 158 kts | 289° |
| 2026-04-15 13:17 | 22.83210 | 113.30951 | 936 ft | 156 kts | 308° |
| 2026-04-15 13:17 | 22.84131 | 113.30482 | 1097 ft | 147 kts | 340° |
| 2026-04-15 13:17 | 22.85092 | 113.30057 | 1082 ft | 149 kts | 328° |
| 2026-04-15 13:17 | 22.85942 | 113.29414 | 1022 ft | 150 kts | 307° |
| 2026-04-15 13:18 | 22.86564 | 113.28456 | 930 ft | 160 kts | 295° |
| 2026-04-15 13:18 | 22.87054 | 113.27356 | 892 ft | 164 kts | 289° |
| 2026-04-15 13:18 | 22.87541 | 113.26241 | 1028 ft | 164 kts | 291° |
| 2026-04-15 13:18 | 22.88022 | 113.25140 | 1187 ft | 162 kts | 290° |
| 2026-04-15 13:19 | 22.88497 | 113.23990 | 1159 ft | 170 kts | 288° |
| 2026-04-15 13:19 | 22.88950 | 113.22797 | 1083 ft | 175 kts | 285° |
| 2026-04-15 13:19 | 22.89344 | 113.21539 | 1026 ft | 176 kts | 282° |
| 2026-04-15 13:19 | 22.89664 | 113.20310 | 1128 ft | 159 kts | 278° |
| 2026-04-15 13:20 | 22.89909 | 113.19192 | 1191 ft | 147 kts | 273° |
| 2026-04-15 13:20 | 22.90017 | 113.18108 | 1111 ft | 146 kts | 262° |
| 2026-04-15 13:20 | 22.90124 | 113.16999 | 1101 ft | 147 kts | 271° |
| 2026-04-15 13:20 | 22.90269 | 113.15894 | 1044 ft | 151 kts | 273° |
| 2026-04-15 13:21 | 22.90498 | 113.14812 | 1041 ft | 156 kts | 269° |
| 2026-04-15 13:21 | 22.90900 | 113.13728 | 1082 ft | 151 kts | 284° |
| 2026-04-15 13:21 | 22.91213 | 113.12654 | 1145 ft | 147 kts | 276° |
| 2026-04-15 13:21 | 22.91398 | 113.11548 | 1115 ft | 149 kts | 276° |
| 2026-04-15 13:22 | 22.91583 | 113.10463 | 1194 ft | 146 kts | 277° |
| 2026-04-15 13:22 | 22.91822 | 113.09381 | 1208 ft | 150 kts | 280° |
| 2026-04-15 13:22 | 22.92099 | 113.08258 | 1121 ft | 156 kts | 280° |
| 2026-04-15 13:22 | 22.92438 | 113.07158 | 1106 ft | 157 kts | 287° |
| 2026-04-15 13:23 | 22.92922 | 113.06119 | 1238 ft | 150 kts | 306° |
| 2026-04-15 13:23 | 22.93730 | 113.05409 | 1355 ft | 151 kts | 328° |
| 2026-04-15 13:23 | 22.94761 | 113.05169 | 1340 ft | 159 kts | 357° |
| 2026-04-15 13:23 | 22.95883 | 113.05161 | 1427 ft | 151 kts | 5° |
| 2026-04-15 13:24 | 22.96959 | 113.05261 | 1414 ft | 158 kts | 4° |
| 2026-04-15 13:24 | 22.98002 | 113.05326 | 1598 ft | 142 kts | 5° |
| 2026-04-15 13:24 | 22.98968 | 113.05263 | 1682 ft | 143 kts | 356° |
| 2026-04-15 13:24 | 22.99987 | 113.05263 | 1627 ft | 152 kts | 3° |
| 2026-04-15 13:25 | 23.01017 | 113.05460 | 1682 ft | 147 kts | 13° |
| 2026-04-15 13:25 | 23.02035 | 113.05708 | 1581 ft | 155 kts | 12° |
| 2026-04-15 13:25 | 23.03155 | 113.05949 | 1211 ft | 172 kts | 11° |
| 2026-04-15 13:25 | 23.04371 | 113.06217 | 728 ft | 181 kts | 12° |
| 2026-04-15 13:26 | 23.05593 | 113.06498 | 430 ft | 176 kts | 12° |
| 2026-04-15 13:26 | 23.06771 | 113.06760 | 190 ft | 171 kts | 13° |
| 2026-04-15 13:26 | 23.07923 | 113.07013 | 42 ft | 164 kts | 11° |
| 2026-04-15 13:26 | 23.08959 | 113.07249 | 167 ft | 137 kts | 11° |
| 2026-04-15 13:27 | 23.09857 | 113.07439 | 390 ft | 129 kts | 12° |
| 2026-04-15 13:27 | 23.10726 | 113.07614 | 547 ft | 129 kts | 9° |
| 2026-04-15 13:27 | 23.11607 | 113.07797 | 723 ft | 126 kts | 15° |
| 2026-04-15 13:27 | 23.12343 | 113.08197 | 1004 ft | 111 kts | 56° |
| 2026-04-15 13:28 | 23.12499 | 113.08984 | 1183 ft | 107 kts | 98° |
| 2026-04-15 13:28 | 23.12419 | 113.09782 | 1323 ft | 109 kts | 118° |
| 2026-04-15 13:28 | 23.11841 | 113.10175 | 1500 ft | 103 kts | 178° |
| 2026-04-15 13:28 | 23.11012 | 113.10055 | 1195 ft | 131 kts | 189° |
| 2026-04-15 13:29 | 23.10128 | 113.09860 | 1054 ft | 135 kts | 189° |
| 2026-04-15 13:29 | 23.09173 | 113.09641 | 677 ft | 131 kts | 193° |
| 2026-04-15 13:29 | 23.08319 | 113.09392 | 655 ft | 117 kts | 194° |
| 2026-04-15 13:29 | 23.07556 | 113.09206 | 609 ft | 112 kts | 184° |
| 2026-04-15 13:30 | 23.06814 | 113.09118 | 494 ft | 91 kts | 187° |
| 2026-04-15 13:30 | 23.06265 | 113.08982 | 470 ft | 72 kts | 211° |
| 2026-04-15 13:30 | 23.06048 | 113.08608 | 495 ft | 53 kts | 246° |
| 2026-04-15 13:30 | 23.06002 | 113.08103 | 609 ft | 87 kts | 255° |
| 2026-04-15 13:31 | 23.05959 | 113.07395 | 565 ft | 94 kts | 269° |
| 2026-04-15 13:31 | 23.06373 | 113.06879 | 492 ft | 99 kts | 343° |
| 2026-04-15 13:31 | 23.07029 | 113.06789 | 270 ft | 91 kts | 21° |
| 2026-04-15 13:31 | 23.07646 | 113.06934 | 52 ft | 81 kts | 24° |
| 2026-04-15 13:32 | 23.08029 | 113.07044 | 22 ft | 31 kts | 12° |
| 2026-04-15 13:32 | 23.08133 | 113.07062 | 21 ft | 5 kts | 8° |
| 2026-04-15 13:32 | 23.08149 | 113.07066 | 22 ft | 2 kts | 156° |
| 2026-04-15 13:32 | 23.08116 | 113.07057 | 22 ft | 10 kts | 190° |
| 2026-04-15 13:33 | 23.08010 | 113.07030 | 22 ft | 20 kts | 192° |
| 2026-04-15 13:33 | 23.07840 | 113.06993 | 22 ft | 24 kts | 197° |
| 2026-04-15 13:33 | 23.07791 | 113.06974 | 22 ft | 0 kts | 197° |
| 2026-04-15 13:33 | 23.07788 | 113.06973 | 22 ft | 3 kts | 202° |
| 2026-04-15 13:34 | 23.07753 | 113.06950 | 22 ft | 7 kts | 231° |
| 2026-04-15 13:34 | 23.07749 | 113.06883 | 22 ft | 11 kts | 285° |
| 2026-04-15 13:34 | 23.07755 | 113.06851 | 22 ft | 0 kts | 272° |
| 2026-04-15 13:35 | 23.07755 | 113.06848 | 22 ft | 2 kts | 275° |
| 2026-04-15 13:35 | 23.07756 | 113.06846 | 22 ft | 0 kts | 276° |
| 2026-04-15 13:35 | 23.07754 | 113.06828 | 22 ft | 2 kts | 249° |
| 2026-04-15 13:36 | 23.07743 | 113.06806 | 22 ft | 4 kts | 217° |
| 2026-04-15 13:36 | 23.07709 | 113.06791 | 22 ft | 4 kts | 194° |
| 2026-04-15 13:36 | 23.07686 | 113.06785 | 22 ft | 2 kts | 195° |
| 2026-04-15 13:36 | 23.07678 | 113.06782 | 22 ft | 1 kts | 192° |
| 2026-04-15 13:37 | 23.07658 | 113.06779 | 22 ft | 4 kts | 193° |
| 2026-04-15 13:37 | 23.07615 | 113.06769 | 22 ft | 7 kts | 190° |
| 2026-04-15 13:37 | 23.07560 | 113.06757 | 22 ft | 9 kts | 192° |
| 2026-04-15 13:37 | 23.07494 | 113.06744 | 22 ft | 9 kts | 197° |
| 2026-04-15 13:38 | 23.07431 | 113.06728 | 22 ft | 7 kts | 194° |
| 2026-04-15 13:38 | 23.07398 | 113.06702 | 22 ft | 6 kts | 273° |
| 2026-04-15 13:38 | 23.07408 | 113.06651 | 22 ft | 4 kts | 283° |
| 2026-04-15 13:38 | 23.07410 | 113.06639 | 22 ft | 0 kts | 284° |